createdAt,value
2023-05-16T00:01:25.032Z,67.34
2023-05-16T00:03:51.894Z,67.33
2023-05-16T00:06:18.593Z,67.79
2023-05-16T00:08:45.249Z,67.83
2023-05-16T00:11:11.792Z,67.85
2023-05-16T00:13:38.950Z,67.96
2023-05-16T00:16:06.509Z,67.72
2023-05-16T00:18:33.555Z,67.62
2023-05-16T00:21:02.655Z,67.63
2023-05-16T00:23:34.479Z,68.01
2023-05-16T00:26:01.061Z,67.65
2023-05-16T00:28:32.601Z,67.69
2023-05-16T00:31:01.442Z,68.07
2023-05-16T00:33:30.594Z,68.43
2023-05-16T00:35:58.168Z,68.21
2023-05-16T00:38:24.767Z,68.50
2023-05-16T00:40:56.873Z,68.87
2023-05-16T00:43:23.663Z,69.37
2023-05-16T00:45:50.990Z,69.46
2023-05-16T00:48:17.839Z,69.75
2023-05-16T00:50:47.431Z,69.62
2023-05-16T00:53:17.164Z,69.98
2023-05-16T00:55:48.733Z,70.17
2023-05-16T00:58:17.705Z,70.85
2023-05-16T01:00:48.810Z,71.16
2023-05-16T01:03:16.122Z,70.72
2023-05-16T01:05:45.182Z,70.86
2023-05-16T01:08:12.641Z,70.79
2023-05-16T01:10:59.513Z,70.71
2023-05-16T01:13:44.564Z,70.92
2023-05-16T01:16:25.082Z,71.43
2023-05-16T01:19:06.005Z,71.72
2023-05-16T01:21:53.061Z,71.85
2023-05-16T01:24:24.572Z,71.60
2023-05-16T01:26:53.823Z,72.20
2023-05-16T01:29:20.686Z,72.21
2023-05-16T01:31:48.049Z,72.39
2023-05-16T01:34:14.814Z,72.09
2023-05-16T01:36:44.740Z,72.61
2023-05-16T01:39:14.190Z,72.01
2023-05-16T01:42:03.864Z,71.73
2023-05-16T01:44:49.136Z,71.89
2023-05-16T01:47:16.749Z,72.11
2023-05-16T01:49:47.046Z,72.31
2023-05-16T01:52:15.331Z,72.75
2023-05-16T01:54:43.627Z,72.67
2023-05-16T01:57:10.301Z,72.43
2023-05-16T01:59:37.237Z,72.92
2023-05-16T02:02:06.610Z,72.76
2023-05-16T02:04:33.230Z,72.40
2023-05-16T02:07:00.674Z,72.19
2023-05-16T02:09:27.645Z,72.42
2023-05-16T02:11:56.318Z,72.74
2023-05-16T02:14:27.051Z,73.03
2023-05-16T02:16:53.804Z,72.93
2023-05-16T02:19:20.834Z,72.42
2023-05-16T02:21:47.629Z,72.78
2023-05-16T02:24:14.292Z,72.90
2023-05-16T02:26:43.345Z,72.95
2023-05-16T02:29:10.518Z,73.13
2023-05-16T02:31:37.342Z,73.51
2023-05-16T02:34:04.119Z,73.52
2023-05-16T02:36:30.989Z,73.54
2023-05-16T02:38:59.988Z,74.25
2023-05-16T02:41:28.445Z,73.86
2023-05-16T02:43:55.038Z,74.70
2023-05-16T02:46:24.161Z,74.97
2023-05-16T02:48:53.602Z,74.86
2023-05-16T02:51:20.870Z,74.82
2023-05-16T02:53:47.557Z,74.88
2023-05-16T02:56:16.494Z,74.96
2023-05-16T02:58:45.855Z,75.06
2023-05-16T03:01:12.549Z,75.13
2023-05-16T03:03:39.407Z,75.27
2023-05-16T03:06:13.170Z,75.23
2023-05-16T03:08:42.183Z,75.21
2023-05-16T03:11:08.819Z,74.71
2023-05-16T03:13:37.718Z,74.96
2023-05-16T03:16:07.260Z,74.69
2023-05-16T03:18:38.815Z,74.63
2023-05-16T03:21:05.527Z,74.84
2023-05-16T03:23:32.250Z,74.73
2023-05-16T03:26:05.833Z,74.84
2023-05-16T03:28:32.433Z,74.78
2023-05-16T03:30:59.193Z,74.84
2023-05-16T03:33:28.347Z,74.49
2023-05-16T03:35:55.008Z,74.23
2023-05-16T03:38:21.801Z,74.31
2023-05-16T03:40:51.384Z,74.39
2023-05-16T03:43:18.000Z,74.74
2023-05-16T03:45:47.048Z,74.84
2023-05-16T03:48:13.856Z,74.49
2023-05-16T03:50:43.037Z,74.85
2023-05-16T03:53:12.229Z,75.09
2023-05-16T03:55:38.956Z,74.82
2023-05-16T03:58:06.012Z,74.63
2023-05-16T04:00:36.741Z,74.70
2023-05-16T04:03:05.978Z,74.49
2023-05-16T04:05:32.825Z,74.33
2023-05-16T04:07:59.470Z,74.35
2023-05-16T04:10:26.129Z,74.01
2023-05-16T04:12:55.127Z,73.55
2023-05-16T04:15:32.371Z,72.94
2023-05-16T04:17:59.191Z,73.04
2023-05-16T04:20:28.427Z,73.21
2023-05-16T04:22:55.249Z,73.44
2023-05-16T04:25:42.248Z,73.34
2023-05-16T04:28:13.851Z,73.69
2023-05-16T04:31:06.542Z,73.48
2023-05-16T04:34:19.619Z,73.20
2023-05-16T04:38:17.667Z,73.00
2023-05-16T04:41:30.574Z,73.00
2023-05-16T04:44:15.036Z,73.03
2023-05-16T04:46:44.123Z,73.31
2023-05-16T04:49:33.615Z,73.29
2023-05-16T05:00:38.717Z,72.78
2023-05-16T05:04:08.560Z,72.94
2023-05-16T05:14:00.971Z,72.86
2023-05-16T05:16:29.906Z,72.83
2023-05-16T05:18:59.736Z,72.30
2023-05-16T05:21:28.757Z,72.28
2023-05-16T05:23:58.177Z,72.43
2023-05-16T05:26:26.282Z,72.73
2023-05-16T05:29:04.713Z,72.27
2023-05-16T05:31:35.353Z,72.18
2023-05-16T05:34:02.870Z,72.21
2023-05-16T05:36:29.593Z,72.60
2023-05-16T05:38:56.364Z,72.45
2023-05-16T05:41:29.999Z,72.40
2023-05-16T05:43:59.345Z,71.97
2023-05-16T05:46:28.290Z,71.83
2023-05-16T05:48:55.323Z,71.71
2023-05-16T05:51:22.043Z,71.84
2023-05-16T05:53:48.918Z,71.93
2023-05-16T05:56:15.513Z,71.58
2023-05-16T05:58:42.493Z,71.56
2023-05-16T06:01:09.382Z,71.58
2023-05-16T06:03:36.136Z,71.70
2023-05-16T06:06:04.116Z,71.37
2023-05-16T06:08:30.827Z,71.44
2023-05-16T06:11:00.234Z,71.25
2023-05-16T06:13:33.107Z,71.89
2023-05-16T06:16:02.679Z,71.65
2023-05-16T06:18:29.937Z,71.74
2023-05-16T06:21:01.237Z,71.88
2023-05-16T06:23:29.979Z,72.06
2023-05-16T06:25:59.413Z,71.37
2023-05-16T06:28:26.025Z,71.25
2023-05-16T06:30:57.614Z,71.54
2023-05-16T06:33:26.687Z,71.92
2023-05-16T06:35:56.595Z,71.89
2023-05-16T06:38:23.231Z,71.97
2023-05-16T06:40:49.913Z,71.30
2023-05-16T06:43:18.901Z,71.57
2023-05-16T06:45:47.191Z,71.33
2023-05-16T06:48:18.705Z,71.80
2023-05-16T06:50:52.168Z,72.46
2023-05-16T06:53:18.950Z,72.13
2023-05-16T06:55:47.885Z,72.34
2023-05-16T06:58:22.669Z,72.55
2023-05-16T07:00:58.515Z,72.58
2023-05-16T07:03:27.436Z,72.10
2023-05-16T07:05:54.554Z,72.41
2023-05-16T07:08:21.126Z,72.05
2023-05-16T07:10:47.839Z,72.17
2023-05-16T07:13:14.513Z,71.03
2023-05-16T07:15:41.123Z,71.22
2023-05-16T07:18:07.961Z,72.00
2023-05-16T07:20:34.736Z,71.71
2023-05-16T07:23:02.103Z,71.97
2023-05-16T07:25:29.189Z,71.77
2023-05-16T07:27:58.904Z,72.28
2023-05-16T07:30:25.791Z,71.88
2023-05-16T07:32:54.805Z,73.09
2023-05-16T07:35:21.478Z,73.16
2023-05-16T07:37:50.670Z,72.66
2023-05-16T07:40:18.687Z,73.34
2023-05-16T07:42:47.745Z,73.51
2023-05-16T07:45:14.837Z,73.50
2023-05-16T07:47:42.069Z,73.38
2023-05-16T07:50:11.242Z,73.87
2023-05-16T07:52:37.918Z,74.28
2023-05-16T07:55:07.278Z,74.57
2023-05-16T07:57:33.971Z,74.30
2023-05-16T08:00:01.046Z,74.41
2023-05-16T08:02:33.463Z,74.98
2023-05-16T08:05:03.359Z,75.17
2023-05-16T08:07:30.568Z,75.98
2023-05-16T08:09:57.196Z,76.37
2023-05-16T08:12:24.337Z,76.48
2023-05-16T08:14:56.017Z,76.33
2023-05-16T08:17:25.082Z,76.69
2023-05-16T08:19:51.687Z,76.95
2023-05-16T08:22:18.494Z,76.93
2023-05-16T08:24:47.518Z,77.16
2023-05-16T08:27:16.697Z,77.84
2023-05-16T08:29:46.309Z,78.65
2023-05-16T08:32:13.172Z,78.28
2023-05-16T08:34:39.861Z,78.65
2023-05-16T08:37:06.610Z,79.35
2023-05-16T08:39:35.772Z,79.79
2023-05-16T08:42:02.568Z,79.95
2023-05-16T08:44:29.552Z,81.13
2023-05-16T08:46:58.884Z,81.53
2023-05-16T08:49:28.241Z,81.40
2023-05-16T08:51:59.721Z,81.41
2023-05-16T08:54:30.024Z,81.29
2023-05-16T08:57:03.048Z,81.62
2023-05-16T08:59:29.725Z,82.70
2023-05-16T09:01:57.053Z,83.44
2023-05-16T09:04:28.037Z,83.29
2023-05-16T09:06:57.344Z,82.73
2023-05-16T09:09:29.426Z,82.62
2023-05-16T09:11:58.645Z,81.86
2023-05-16T09:14:25.844Z,81.50
2023-05-16T09:17:12.653Z,81.57
2023-05-16T09:19:40.373Z,82.20
2023-05-16T09:22:11.633Z,81.96
2023-05-16T09:24:41.593Z,83.09
2023-05-16T09:27:12.144Z,82.86
2023-05-16T09:29:44.678Z,83.07
2023-05-16T09:32:12.943Z,83.61
2023-05-16T09:34:49.209Z,83.86
2023-05-16T09:37:18.123Z,83.65
2023-05-16T09:39:48.411Z,83.29
2023-05-16T09:42:24.250Z,82.99
2023-05-16T09:44:52.395Z,82.37
2023-05-16T09:47:22.314Z,82.52
2023-05-16T09:49:54.454Z,82.23
2023-05-16T09:52:25.685Z,82.34
2023-05-16T09:55:05.327Z,81.97
2023-05-16T09:57:44.299Z,81.89
2023-05-16T10:00:11.988Z,81.14
2023-05-16T10:02:40.557Z,81.95
2023-05-16T10:05:09.854Z,82.38
2023-05-16T10:07:46.866Z,82.69
2023-05-16T10:10:15.994Z,82.05
2023-05-16T10:12:42.651Z,82.23
2023-05-16T10:15:09.686Z,82.12
2023-05-16T10:17:37.115Z,82.05
2023-05-16T10:20:07.280Z,82.03
2023-05-16T10:22:37.322Z,82.13
2023-05-16T10:25:33.524Z,82.77
2023-05-16T10:28:00.320Z,83.20
2023-05-16T10:30:30.311Z,83.44
2023-05-16T10:33:01.182Z,84.11
2023-05-16T10:35:28.230Z,84.33
2023-05-16T10:37:55.285Z,84.61
2023-05-16T10:40:21.929Z,84.72
2023-05-16T10:42:59.530Z,84.55
2023-05-16T10:45:26.436Z,84.48
2023-05-16T10:47:56.320Z,85.19
2023-05-16T10:50:36.740Z,85.66
2023-05-16T10:53:18.811Z,85.19
2023-05-16T10:56:01.354Z,86.08
2023-05-16T10:58:31.251Z,86.12
2023-05-16T11:01:17.036Z,87.44
2023-05-16T11:04:01.958Z,87.72
2023-05-16T11:06:35.396Z,87.94
2023-05-16T11:09:10.169Z,88.29
2023-05-16T11:11:53.303Z,88.70
2023-05-16T11:14:29.603Z,87.97
2023-05-16T11:17:10.396Z,87.13
2023-05-16T11:19:47.039Z,85.97
2023-05-16T11:22:19.884Z,85.76
2023-05-16T11:24:51.296Z,85.76
2023-05-16T11:27:24.148Z,85.48
2023-05-16T11:30:02.808Z,86.10
2023-05-16T11:32:35.304Z,85.79
2023-05-16T11:35:11.563Z,84.99
2023-05-16T11:37:42.209Z,84.36
2023-05-16T11:40:12.314Z,83.33
2023-05-16T11:42:43.027Z,83.81
2023-05-16T11:45:09.725Z,83.48
2023-05-16T11:47:37.604Z,83.14
2023-05-16T11:50:10.349Z,82.53
2023-05-16T11:52:40.019Z,82.57
2023-05-16T11:55:08.114Z,82.93
2023-05-16T11:57:34.804Z,83.38
2023-05-16T12:00:09.263Z,83.39
2023-05-16T12:02:38.620Z,83.22
2023-05-16T12:05:10.391Z,82.19
2023-05-16T12:07:37.551Z,82.02
2023-05-16T12:10:10.103Z,81.96
2023-05-16T12:12:37.081Z,81.50
2023-05-16T12:15:07.918Z,81.37
2023-05-16T12:17:37.961Z,81.66
2023-05-16T12:20:11.668Z,82.39
2023-05-16T12:22:41.965Z,81.19
2023-05-16T12:25:28.009Z,80.82
2023-05-16T12:27:55.423Z,80.51
2023-05-16T12:30:22.988Z,80.44
2023-05-16T12:33:09.959Z,79.53
2023-05-16T12:35:38.361Z,79.47
2023-05-16T12:38:08.973Z,78.75
2023-05-16T12:40:39.917Z,78.75
2023-05-16T12:43:27.917Z,79.58
2023-05-16T12:45:58.652Z,78.59
2023-05-16T12:48:37.017Z,79.56
2023-05-16T12:51:16.560Z,79.67
2023-05-16T12:54:08.814Z,79.19
2023-05-16T12:56:42.038Z,79.57
2023-05-16T12:59:12.490Z,79.35
2023-05-16T13:01:45.897Z,80.13
2023-05-16T13:04:19.164Z,79.34
2023-05-16T13:06:58.408Z,79.24
2023-05-16T13:09:31.411Z,79.40
2023-05-16T13:12:03.001Z,79.62
2023-05-16T13:14:32.745Z,79.78
2023-05-16T13:17:02.380Z,78.86
2023-05-16T13:19:31.855Z,79.57
2023-05-16T13:21:58.770Z,80.04
2023-05-16T13:24:25.448Z,79.47
2023-05-16T13:26:56.785Z,79.50
2023-05-16T13:29:23.497Z,79.80
2023-05-16T13:31:50.821Z,80.52
2023-05-16T13:34:17.564Z,81.07
2023-05-16T13:36:54.568Z,81.13
2023-05-16T13:39:22.400Z,81.17
2023-05-16T13:41:49.473Z,81.09
2023-05-16T13:44:16.759Z,81.17
2023-05-16T13:46:43.572Z,81.59
2023-05-16T13:49:15.549Z,81.56
2023-05-16T13:51:44.626Z,81.51
2023-05-16T13:54:13.766Z,80.50
2023-05-16T13:56:40.501Z,80.76
2023-05-16T13:59:07.885Z,80.77
2023-05-16T14:01:41.182Z,80.77
2023-05-16T14:04:12.740Z,79.61
2023-05-16T14:06:39.419Z,77.63
2023-05-16T14:09:06.412Z,79.12
2023-05-16T14:11:33.075Z,77.76
2023-05-16T14:14:02.148Z,77.27
2023-05-16T14:16:31.332Z,77.14
2023-05-16T14:18:58.432Z,76.07
2023-05-16T14:21:25.085Z,75.17
2023-05-16T14:23:54.212Z,75.21
2023-05-16T14:26:25.556Z,75.93
2023-05-16T14:28:59.670Z,75.36
2023-05-16T14:31:29.935Z,74.77
2023-05-16T14:33:57.094Z,74.75
2023-05-16T14:36:23.934Z,75.18
2023-05-16T14:38:50.586Z,75.85
2023-05-16T14:41:17.315Z,76.88
2023-05-16T14:43:44.802Z,76.75
2023-05-16T14:46:17.274Z,76.64
2023-05-16T14:48:43.984Z,76.55
2023-05-16T14:51:13.694Z,77.48
2023-05-16T14:53:40.942Z,77.08
2023-05-16T14:56:07.658Z,77.78
2023-05-16T14:58:37.001Z,78.21
2023-05-16T15:01:04.282Z,78.49
2023-05-16T15:03:43.283Z,78.83
2023-05-16T15:06:20.161Z,78.56
2023-05-16T15:08:51.906Z,78.81
2023-05-16T15:11:18.656Z,78.86
2023-05-16T15:13:47.732Z,79.11
2023-05-16T15:16:14.459Z,78.38
2023-05-16T15:18:41.371Z,79.33
2023-05-16T15:21:09.100Z,79.82
2023-05-16T15:23:36.617Z,80.48
2023-05-16T15:26:03.724Z,80.51
2023-05-16T15:28:30.380Z,81.63
2023-05-16T15:30:59.675Z,82.44
2023-05-16T15:33:26.366Z,83.02
2023-05-16T15:35:53.076Z,83.42
2023-05-16T15:38:19.965Z,83.98
2023-05-16T15:41:09.701Z,83.78
2023-05-16T15:43:44.119Z,84.30
2023-05-16T15:46:13.445Z,84.49
2023-05-16T15:48:44.738Z,85.18
2023-05-16T15:51:15.743Z,85.30
2023-05-16T15:53:45.178Z,85.58
2023-05-16T15:56:11.923Z,85.89
2023-05-16T15:58:41.733Z,86.11
2023-05-16T16:01:08.498Z,85.88
2023-05-16T16:03:38.306Z,86.36
2023-05-16T16:06:05.210Z,86.82
2023-05-16T16:08:34.371Z,86.66
2023-05-16T16:11:01.327Z,87.24
2023-05-16T16:13:31.072Z,87.46
2023-05-16T16:16:00.015Z,87.90
2023-05-16T16:18:29.101Z,87.80
2023-05-16T16:20:56.340Z,88.14
2023-05-16T16:23:22.958Z,88.05
2023-05-16T16:25:49.580Z,88.34
2023-05-16T16:28:16.600Z,88.15
2023-05-16T16:30:47.459Z,88.03
2023-05-16T16:33:21.398Z,87.66
2023-05-16T16:35:48.486Z,87.01
2023-05-16T16:38:17.520Z,87.10
2023-05-16T16:40:46.629Z,87.03
2023-05-16T16:43:19.513Z,86.84
2023-05-16T16:45:48.088Z,87.25
2023-05-16T16:48:17.220Z,87.17
2023-05-16T16:50:46.260Z,87.40
2023-05-16T16:53:15.653Z,87.30
2023-05-16T16:55:44.819Z,87.14
2023-05-16T16:58:14.268Z,87.17
2023-05-16T17:00:46.737Z,87.43
2023-05-16T17:03:13.549Z,88.69
2023-05-16T17:05:45.589Z,88.67
2023-05-16T17:08:12.218Z,88.97
2023-05-16T17:10:39.440Z,89.46
2023-05-16T17:13:10.455Z,89.88
2023-05-16T17:15:37.869Z,89.93
2023-05-16T17:18:07.681Z,91.32
2023-05-16T17:20:37.428Z,92.41
2023-05-16T17:23:04.220Z,93.17
2023-05-16T17:25:35.915Z,93.66
2023-05-16T17:28:10.896Z,93.61
2023-05-16T17:30:40.499Z,94.00
2023-05-16T17:33:08.244Z,94.69
2023-05-16T17:35:35.890Z,94.92
2023-05-16T17:38:05.415Z,94.80
2023-05-16T17:40:34.519Z,94.99
2023-05-16T17:43:03.232Z,95.40
2023-05-16T17:45:31.905Z,95.36
2023-05-16T17:48:01.170Z,95.69
2023-05-16T17:50:29.158Z,95.85
2023-05-16T17:52:58.906Z,96.29
2023-05-16T17:55:26.176Z,96.75
2023-05-16T17:57:53.575Z,97.13
2023-05-16T18:00:22.866Z,96.27
2023-05-16T18:02:52.729Z,96.71
2023-05-16T18:05:19.416Z,97.32
2023-05-16T18:07:46.598Z,97.09
2023-05-16T18:10:16.551Z,97.23
2023-05-16T18:12:43.807Z,97.17
2023-05-16T18:15:21.017Z,97.55
2023-05-16T18:17:49.710Z,96.85
2023-05-16T18:20:19.575Z,96.68
2023-05-16T18:22:46.445Z,96.85
2023-05-16T18:25:14.039Z,96.49
2023-05-16T18:27:42.987Z,95.92
2023-05-16T18:30:10.118Z,95.55
2023-05-16T18:32:39.307Z,95.10
2023-05-16T18:35:10.399Z,95.32
2023-05-16T18:37:44.222Z,94.48
2023-05-16T18:40:11.548Z,93.96
2023-05-16T18:42:40.722Z,94.04
2023-05-16T18:45:15.060Z,93.79
2023-05-16T18:47:49.311Z,93.71
2023-05-16T18:50:16.342Z,93.06
2023-05-16T18:52:43.143Z,93.12
2023-05-16T18:55:09.995Z,93.36
2023-05-16T18:57:36.666Z,93.00
2023-05-16T19:00:10.523Z,93.05
2023-05-16T19:02:42.135Z,92.61
2023-05-16T19:05:10.674Z,92.29
2023-05-16T19:07:39.720Z,92.27
2023-05-16T19:10:06.688Z,91.71
2023-05-16T19:12:33.309Z,91.35
2023-05-16T19:15:02.223Z,92.05
2023-05-16T19:17:30.564Z,92.34
2023-05-16T19:19:58.442Z,91.94
2023-05-16T19:22:29.992Z,91.98
2023-05-16T19:24:58.938Z,91.83
2023-05-16T19:27:35.837Z,91.30
2023-05-16T19:30:04.041Z,91.01
2023-05-16T19:32:30.668Z,91.31
2023-05-16T19:34:57.684Z,91.31
2023-05-16T19:37:24.490Z,91.85
2023-05-16T19:39:54.396Z,92.10
2023-05-16T19:42:21.343Z,92.03
2023-05-16T19:44:48.221Z,91.96
2023-05-16T19:47:14.856Z,92.05
2023-05-16T19:49:47.616Z,91.93
2023-05-16T19:52:19.349Z,92.50
2023-05-16T19:54:51.321Z,92.67
2023-05-16T19:57:18.062Z,92.77
2023-05-16T19:59:49.860Z,92.34
2023-05-16T20:02:21.207Z,91.36
2023-05-16T20:04:51.197Z,91.50
2023-05-16T20:07:20.664Z,92.26
2023-05-16T20:09:47.382Z,92.25
2023-05-16T20:12:16.616Z,92.08
2023-05-16T20:15:02.640Z,92.14
2023-05-16T20:17:31.640Z,92.07
2023-05-16T20:20:03.199Z,92.49
2023-05-16T20:22:30.105Z,92.80
2023-05-16T20:24:56.897Z,93.05
2023-05-16T20:27:29.750Z,93.14
2023-05-16T20:29:58.620Z,93.31
2023-05-16T20:32:31.119Z,93.49
2023-05-16T20:34:57.912Z,92.76
2023-05-16T20:37:29.377Z,92.93
2023-05-16T20:39:56.158Z,92.91
2023-05-16T20:42:22.853Z,92.68
2023-05-16T20:44:52.385Z,92.31
2023-05-16T20:47:25.064Z,91.76
2023-05-16T20:49:52.820Z,92.18
2023-05-16T20:52:21.909Z,91.89
2023-05-16T20:54:48.871Z,90.95
2023-05-16T20:57:19.563Z,91.18
2023-05-16T20:59:50.517Z,91.80
2023-05-16T21:02:17.248Z,92.03
2023-05-16T21:04:48.886Z,92.64
2023-05-16T21:07:15.750Z,92.61
2023-05-16T21:09:44.850Z,92.39
2023-05-16T21:12:11.623Z,92.06
2023-05-16T21:14:38.370Z,91.35
2023-05-16T21:17:08.276Z,90.75
2023-05-16T21:19:39.643Z,90.81
2023-05-16T21:22:06.328Z,91.53
2023-05-16T21:24:35.790Z,91.91
2023-05-16T21:27:07.101Z,92.18
2023-05-16T21:29:36.543Z,92.15
2023-05-16T21:32:03.960Z,91.18
2023-05-16T21:34:38.026Z,91.23
2023-05-16T21:37:05.915Z,91.26
2023-05-16T21:39:35.524Z,91.43
2023-05-16T21:42:05.287Z,91.21
2023-05-16T21:44:31.872Z,90.91
2023-05-16T21:46:58.556Z,91.23
2023-05-16T21:49:27.950Z,90.48
2023-05-16T21:51:59.484Z,90.93
2023-05-16T21:54:28.074Z,90.27
2023-05-16T21:56:57.330Z,90.20
2023-05-16T21:59:26.484Z,90.29
2023-05-16T22:01:53.034Z,89.72
2023-05-16T22:04:22.256Z,89.78
2023-05-16T22:06:48.946Z,89.61
2023-05-16T22:09:18.442Z,89.78
2023-05-16T22:11:45.387Z,90.68
2023-05-16T22:14:14.782Z,90.98
2023-05-16T22:16:44.037Z,90.90
2023-05-16T22:19:13.338Z,90.30
2023-05-16T22:21:42.935Z,90.10
2023-05-16T22:24:09.557Z,89.99
2023-05-16T22:26:36.391Z,90.39
2023-05-16T22:29:05.302Z,91.22
2023-05-16T22:31:34.288Z,91.94
2023-05-16T22:34:01.786Z,91.98
2023-05-16T22:36:28.705Z,92.16
2023-05-16T22:38:55.850Z,91.96
2023-05-16T22:41:24.923Z,91.32
2023-05-16T22:43:54.679Z,91.39
2023-05-16T22:46:26.174Z,91.22
2023-05-16T22:48:57.832Z,91.48
2023-05-16T22:51:26.607Z,91.48
2023-05-16T22:53:53.210Z,91.64
2023-05-16T22:56:19.903Z,91.52
2023-05-16T22:58:48.903Z,91.52
2023-05-16T23:01:20.486Z,90.97
2023-05-16T23:03:49.859Z,90.50
2023-05-16T23:06:19.552Z,90.19
2023-05-16T23:08:53.971Z,89.92
2023-05-16T23:11:24.031Z,89.42
2023-05-16T23:13:50.770Z,89.23
2023-05-16T23:16:25.738Z,89.59
2023-05-16T23:19:42.077Z,90.02
2023-05-16T23:22:12.151Z,90.18
2023-05-16T23:24:42.310Z,90.46
2023-05-16T23:27:09.302Z,90.37
2023-05-16T23:34:22.849Z,90.46
2023-05-16T23:36:50.007Z,90.34
2023-05-16T23:39:17.468Z,90.25
2023-05-16T23:41:44.504Z,90.78
2023-05-16T23:44:17.391Z,90.71
2023-05-16T23:46:44.509Z,90.51
2023-05-16T23:49:11.540Z,90.51
2023-05-16T23:51:55.573Z,90.56
2023-05-16T23:54:26.820Z,91.02
2023-05-16T23:56:54.181Z,91.10
2023-05-16T23:59:21.525Z,90.77
